Time;durP1;ratioP1;P1;durP2;ratioP2;P2;SDS_P1;SDS_P2;PMS_P1;PMS_P2;Temp;Humidity;BMP_temperature;BMP_pressure;BME280_temperature;BME280_humidity;BME280_pressure;Samples;Min_cycle;Max_cycle;Signal;HPM_P1;HPM_P2
2023/06/20 00:00:55;;;;;;;26.30;19.00;;;;;;;27.25;42.03;99947.48;108125;1253;60470;-67
2023/06/20 00:03:22;;;;;;;24.40;18.20;;;;;;;27.15;42.14;99946.89;108097;1253;59637;-67
2023/06/20 00:05:50;;;;;;;24.40;19.20;;;;;;;27.40;41.68;99951.07;108071;1257;74047;-68
2023/06/20 00:08:17;;;;;;;26.90;19.30;;;;;;;27.19;42.16;99947.94;108107;1252;70682;-69
2023/06/20 00:10:44;;;;;;;27.20;18.90;;;;;;;27.22;42.11;99949.05;108090;1253;73131;-68
2023/06/20 00:13:11;;;;;;;26.00;19.80;;;;;;;27.25;42.11;99950.23;108064;1253;60490;-68
2023/06/20 00:15:41;;;;;;;28.60;19.20;;;;;;;27.43;41.70;99955.42;108051;1253;60286;-69
2023/06/20 00:18:08;;;;;;;23.10;17.70;;;;;;;27.48;41.41;99955.41;108199;1256;73905;-68
2023/06/20 00:20:36;;;;;;;31.50;19.90;;;;;;;27.50;41.23;99955.18;108121;1253;70368;-68
2023/06/20 00:23:03;;;;;;;23.10;17.60;;;;;;;27.39;41.53;99952.73;108080;1253;72673;-67
2023/06/20 00:25:31;;;;;;;27.50;20.90;;;;;;;27.53;41.33;99949.42;108060;1255;61002;-69
2023/06/20 00:27:58;;;;;;;26.80;19.00;;;;;;;27.56;41.26;99949.50;108026;1253;60407;-68
2023/06/20 00:30:25;;;;;;;24.20;19.10;;;;;;;27.61;41.11;99942.45;108114;1251;73837;-68
2023/06/20 00:32:53;;;;;;;27.30;19.90;;;;;;;27.40;41.46;99943.98;108109;1251;70512;-68
2023/06/20 00:35:20;;;;;;;23.40;19.80;;;;;;;27.23;41.78;99940.11;108180;1253;72748;-68
2023/06/20 00:37:47;;;;;;;25.40;21.10;;;;;;;27.21;41.58;99944.06;108076;1251;60775;-67
2023/06/20 00:40:15;;;;;;;28.40;21.80;;;;;;;27.06;42.21;99943.20;108184;1256;60320;-67
2023/06/20 00:42:42;;;;;;;26.90;19.90;;;;;;;27.19;41.92;99941.66;108087;1251;74253;-67
2023/06/20 00:45:36;;;;;;;26.70;20.50;;;;;;;27.05;42.20;99939.89;108140;1251;71222;-69
2023/06/20 00:48:05;;;;;;;26.00;19.80;;;;;;;27.10;42.22;99940.99;108143;1251;72608;-68
2023/06/20 00:50:33;;;;;;;24.70;20.00;;;;;;;27.14;42.15;99940.70;108159;1254;61742;-68
2023/06/20 00:53:04;;;;;;;24.60;19.70;;;;;;;27.22;42.18;99938.46;108024;1253;60274;-67
2023/06/20 00:55:33;;;;;;;21.90;16.60;;;;;;;27.37;42.04;99938.38;108067;1252;73865;-68
2023/06/20 00:58:02;;;;;;;25.30;19.80;;;;;;;27.24;42.02;99933.02;108130;1253;70055;-68
2023/06/20 01:00:34;;;;;;;32.50;20.40;;;;;;;26.76;42.78;99929.41;108078;1253;72471;-69
2023/06/20 01:03:10;;;;;;;28.00;21.40;;;;;;;26.63;43.11;99932.22;108163;1253;62798;-68
2023/06/20 01:05:39;;;;;;;28.50;21.80;;;;;;;26.68;43.25;99927.89;108164;1253;60304;-69
2023/06/20 01:08:26;;;;;;;28.10;21.40;;;;;;;26.46;43.66;99930.81;108082;1253;74068;-67
2023/06/20 01:11:18;;;;;;;29.20;20.30;;;;;;;26.29;44.09;99932.09;108136;1252;69031;-67
2023/06/20 01:13:55;;;;;;;28.00;20.90;;;;;;;26.56;43.56;99933.14;108131;1253;74686;-67
2023/06/20 01:16:35;;;;;;;26.70;20.50;;;;;;;26.56;43.47;99932.98;108053;1255;60716;-68
2023/06/20 01:19:08;;;;;;;26.80;20.10;;;;;;;26.56;43.50;99936.15;108140;1251;60256;-68
2023/06/20 01:21:39;;;;;;;28.00;20.80;;;;;;;26.69;43.33;99933.02;108107;1252;74020;-68
2023/06/20 01:24:13;;;;;;;30.90;21.60;;;;;;;26.62;43.54;99935.42;108144;1253;70652;-66
2023/06/20 01:27:04;;;;;;;27.10;20.80;;;;;;;26.58;43.43;99937.79;108063;1253;71754;-67
2023/06/20 01:29:35;;;;;;;32.00;22.00;;;;;;;26.50;43.67;99939.20;108089;1253;60390;-67
2023/06/20 01:32:05;;;;;;;27.20;21.10;;;;;;;26.50;43.51;99938.08;108101;1252;62208;-68
2023/06/20 01:34:33;;;;;;;23.80;19.30;;;;;;;26.48;43.44;99941.11;108139;1253;72100;-67
2023/06/20 01:41:09;;;;;;;31.20;21.90;;;;;;;26.38;43.63;99940.66;108105;1255;72473;-68
2023/06/20 01:44:16;;;;;;;27.70;19.70;;;;;;;26.34;43.60;99941.09;107821;1253;60285;-68
2023/06/20 01:46:45;;;;;;;26.90;20.00;;;;;;;26.72;42.89;99943.31;108083;1253;59713;-66
2023/06/20 01:49:13;;;;;;;29.00;23.40;;;;;;;26.41;43.33;99943.89;108185;1252;74031;-66
2023/06/20 01:51:40;;;;;;;29.10;21.50;;;;;;;26.41;43.36;99947.46;108067;1251;68838;-68
2023/06/20 01:54:32;;;;;;;27.70;22.20;;;;;;;26.42;43.33;99951.88;108118;1253;71169;-68
2023/06/20 01:56:59;;;;;;;32.50;22.60;;;;;;;26.53;43.28;99968.52;107950;1253;62167;-68
2023/06/20 01:59:27;;;;;;;26.30;20.30;;;;;;;26.62;43.10;99972.09;108169;1253;60312;-66
2023/06/20 02:01:55;;;;;;;30.60;23.50;;;;;;;26.63;43.40;99958.46;108142;1253;73472;-69
2023/06/20 02:04:22;;;;;;;30.20;21.70;;;;;;;26.47;44.09;99966.64;107991;1253;191413;-67
2023/06/20 02:08:05;;;;;;;30.90;23.10;;;;;;;23.27;51.52;99991.65;105332;1285;600254;-67
2023/06/20 02:10:32;;;;;;;30.30;21.90;;;;;;;24.78;48.15;99971.16;107267;1269;60557;-67
2023/06/20 02:13:02;;;;;;;27.30;22.70;;;;;;;25.12;47.74;99973.19;107306;1263;61997;-67
2023/06/20 02:15:30;;;;;;;28.30;22.60;;;;;;;25.21;47.81;99972.83;107192;1263;72471;-69
2023/06/20 02:17:57;;;;;;;27.60;21.90;;;;;;;25.30;47.48;99973.69;107267;1266;69079;-68
2023/06/20 02:20:24;;;;;;;32.00;23.50;;;;;;;25.54;47.01;99981.70;107206;1266;71392;-69
2023/06/20 02:22:52;;;;;;;29.20;22.30;;;;;;;25.58;47.07;99983.13;107466;1258;203015;-68
2023/06/20 02:25:21;;;;;;;30.10;22.90;;;;;;;25.50;47.11;99973.51;107502;1260;60169;-66
2023/06/20 02:27:51;;;;;;;31.90;23.20;;;;;;;25.42;47.55;99969.67;107509;1260;72310;-68
2023/06/20 02:30:22;;;;;;;30.00;19.40;;;;;;;25.50;47.52;99978.20;107532;1264;68719;-67
2023/06/20 02:32:49;;;;;;;31.30;22.70;;;;;;;25.67;47.23;99987.59;107449;1260;73138;-68
2023/06/20 02:35:17;;;;;;;30.00;22.60;;;;;;;25.63;47.21;99993.69;107451;1265;61677;-67
2023/06/20 02:37:46;;;;;;;28.10;22.50;;;;;;;25.54;47.45;99988.86;107568;1260;60245;-68
2023/06/20 02:40:13;;;;;;;32.70;22.60;;;;;;;25.78;47.02;99982.83;107433;1263;71805;-69
2023/06/20 02:42:40;;;;;;;26.80;21.70;;;;;;;25.84;46.92;99983.50;107428;1261;71592;-69
2023/06/20 02:45:12;;;;;;;29.20;22.60;;;;;;;26.06;46.57;99986.80;107289;1261;72699;-69
2023/06/20 02:47:52;;;;;;;28.30;21.20;;;;;;;26.03;46.62;99999.14;107452;1265;62663;-67
2023/06/20 02:50:23;;;;;;;27.90;21.00;;;;;;;26.11;46.51;99990.78;107320;1266;59646;-68
2023/06/20 02:53:00;;;;;;;29.60;21.70;;;;;;;26.13;46.42;99990.94;107647;1258;71870;-68
2023/06/20 02:55:37;;;;;;;26.50;20.70;;;;;;;26.26;46.11;99995.39;107444;1257;69224;-69
2023/06/20 02:58:10;;;;;;;26.20;19.50;;;;;;;26.34;46.01;100000.10;107566;1258;74816;-67
2023/06/20 03:00:40;;;;;;;31.50;23.20;;;;;;;26.33;45.96;99990.46;107579;1259;60558;-69
2023/06/20 03:03:09;;;;;;;29.50;23.80;;;;;;;26.44;45.80;99992.31;107542;1257;62155;-68
2023/06/20 03:05:43;;;;;;;27.50;22.50;;;;;;;26.29;46.16;100001.70;107906;1260;73024;-69
2023/06/20 03:08:13;;;;;;;28.90;23.40;;;;;;;26.34;46.23;99994.00;108008;1257;68821;-69
2023/06/20 03:10:41;;;;;;;28.10;21.70;;;;;;;26.25;46.39;99991.05;107881;1253;72705;-68
2023/06/20 03:13:13;;;;;;;37.80;25.50;;;;;;;25.86;47.32;99997.91;107893;1253;61680;-69
2023/06/20 03:15:41;;;;;;;29.40;23.80;;;;;;;25.94;47.40;99996.90;107943;1253;59181;-68
2023/06/20 03:18:11;;;;;;;27.60;22.20;;;;;;;26.02;47.35;99988.67;108092;1253;71799;-69
2023/06/20 03:20:43;;;;;;;32.20;25.30;;;;;;;26.28;46.71;99991.59;108099;1253;70569;-70
2023/06/20 03:23:12;;;;;;;33.50;25.20;;;;;;;26.28;46.77;99999.60;108067;1253;71760;-68
2023/06/20 03:25:39;;;;;;;34.40;23.90;;;;;;;26.38;46.86;100000.02;108000;1253;60374;-68
2023/06/20 03:28:07;;;;;;;32.60;23.10;;;;;;;26.45;46.77;99999.46;107918;1253;61310;-70
2023/06/20 03:30:34;;;;;;;28.80;22.60;;;;;;;26.33;46.98;100003.23;107874;1254;72314;-69
2023/06/20 03:33:02;;;;;;;29.00;22.50;;;;;;;26.49;47.02;100012.55;107877;1256;69940;-69
2023/06/20 03:35:30;;;;;;;29.10;23.40;;;;;;;26.99;46.04;100015.14;107857;1255;72602;-69
2023/06/20 03:37:57;;;;;;;31.40;23.10;;;;;;;27.14;45.86;100018.00;108061;1257;60383;-69
2023/06/20 03:40:24;;;;;;;30.90;22.90;;;;;;;26.94;46.42;100021.78;107858;1255;60188;-68
2023/06/20 03:42:52;;;;;;;24.70;18.70;;;;;;;26.91;46.42;100020.11;107951;1255;73090;-68
2023/06/20 03:45:19;;;;;;;31.40;23.00;;;;;;;27.14;46.07;100023.98;108076;1256;71204;-70
2023/06/20 03:47:46;;;;;;;24.50;20.10;;;;;;;27.05;46.22;100020.63;107842;1254;72738;-69
2023/06/20 03:50:14;;;;;;;24.40;19.00;;;;;;;27.14;46.08;100022.87;108058;1253;61737;-69
2023/06/20 03:52:42;;;;;;;33.20;21.30;;;;;;;27.45;45.36;100024.43;107938;1257;59539;-68
2023/06/20 03:55:10;;;;;;;27.40;19.10;;;;;;;27.61;45.10;100024.52;108109;1256;71989;-69
2023/06/20 03:57:38;;;;;;;23.90;19.80;;;;;;;27.87;44.32;100024.77;107947;1256;70116;-69
2023/06/20 04:00:13;;;;;;;30.10;19.70;;;;;;;27.74;44.40;100023.87;108126;1253;72934;-72
2023/06/20 04:02:45;;;;;;;24.90;18.10;;;;;;;27.93;44.21;100032.45;107967;1255;61801;-68
2023/06/20 04:05:13;;;;;;;28.50;20.40;;;;;;;27.77;44.40;100030.66;107959;1254;60296;-68
2023/06/20 04:07:42;;;;;;;23.10;18.40;;;;;;;27.75;44.54;100031.68;108095;1254;73124;-69
2023/06/20 04:10:11;;;;;;;24.70;20.20;;;;;;;27.78;44.40;100037.92;107919;1254;70784;-68
2023/06/20 04:12:41;;;;;;;33.50;20.80;;;;;;;28.06;43.94;100040.55;108057;1254;72705;-69
2023/06/20 04:15:09;;;;;;;21.80;17.80;;;;;;;28.37;43.26;100041.77;108102;1256;60410;-69
2023/06/20 04:17:39;;;;;;;31.00;20.70;;;;;;;28.70;42.46;100040.06;108107;1254;59503;-69
2023/06/20 04:20:12;;;;;;;27.70;21.30;;;;;;;28.84;42.30;100042.44;107831;1255;72387;-69
2023/06/20 04:22:46;;;;;;;28.90;19.80;;;;;;;28.86;42.39;100044.11;107909;1256;70272;-68
2023/06/20 04:25:14;;;;;;;30.60;20.80;;;;;;;28.65;42.42;100052.17;107999;1255;71368;-67
2023/06/20 04:27:43;;;;;;;24.30;18.60;;;;;;;28.76;42.39;100048.95;108062;1253;61683;-70
2023/06/20 04:30:11;;;;;;;24.40;20.30;;;;;;;28.96;41.89;100047.34;108079;1253;59544;-67
2023/06/20 04:32:41;;;;;;;26.40;21.10;;;;;;;29.05;41.77;100054.10;107899;1253;71816;-69
2023/06/20 04:35:10;;;;;;;26.20;19.60;;;;;;;29.15;42.15;100047.70;107993;1253;71034;-68
2023/06/20 04:37:39;;;;;;;27.20;19.30;;;;;;;29.23;41.97;100045.98;108046;1253;72701;-67
2023/06/20 04:40:11;;;;;;;24.00;19.20;;;;;;;29.38;41.83;100049.14;107942;1256;60482;-70
2023/06/20 04:42:38;;;;;;;26.60;18.80;;;;;;;29.52;41.87;100045.14;108040;1258;59786;-69
2023/06/20 04:45:08;;;;;;;24.40;18.50;;;;;;;29.43;41.65;100048.75;108071;1253;72895;-69
2023/06/20 04:47:36;;;;;;;22.80;17.60;;;;;;;29.32;42.13;100049.98;107930;1253;70604;-70
2023/06/20 04:50:04;;;;;;;22.30;18.30;;;;;;;29.40;42.09;100048.70;108002;1256;73890;-70
2023/06/20 04:52:32;;;;;;;22.80;18.20;;;;;;;29.52;41.66;100046.73;108010;1256;61991;-70
2023/06/20 04:55:01;;;;;;;22.60;17.30;;;;;;;29.89;41.37;100049.69;108106;1253;60001;-68
2023/06/20 04:57:30;;;;;;;23.60;17.00;;;;;;;30.24;40.58;100052.33;108058;1253;73001;-69
2023/06/20 04:59:57;;;;;;;21.90;17.30;;;;;;;30.69;39.85;100048.32;108086;1253;69672;-69
2023/06/20 05:02:25;;;;;;;23.20;16.60;;;;;;;31.08;39.56;100045.60;108068;1253;72708;-69
2023/06/20 05:04:53;;;;;;;27.40;17.10;;;;;;;31.48;38.64;100048.20;107904;1256;61701;-68
2023/06/20 05:07:21;;;;;;;24.20;16.00;;;;;;;31.74;38.27;100044.91;108094;1253;59276;-69
2023/06/20 05:09:50;;;;;;;26.90;16.60;;;;;;;32.10;37.98;100050.48;108054;1259;73131;-70
2023/06/20 05:12:18;;;;;;;23.60;15.80;;;;;;;32.64;37.20;100052.36;108063;1253;70317;-69
2023/06/20 05:14:45;;;;;;;18.20;14.80;;;;;;;32.99;36.47;100054.98;108080;1253;71801;-68
2023/06/20 05:17:15;;;;;;;27.70;14.50;;;;;;;33.29;35.70;100054.80;108074;1254;59544;-71
2023/06/20 05:19:43;;;;;;;18.40;13.70;;;;;;;33.40;35.19;100061.33;107973;1253;60094;-69
2023/06/20 05:22:10;;;;;;;21.30;14.10;;;;;;;33.58;34.57;100064.30;108072;1253;64654;-67
2023/06/20 05:24:38;;;;;;;18.70;14.00;;;;;;;33.74;33.85;100062.04;108056;1253;68685;-67
2023/06/20 05:27:06;;;;;;;17.10;14.30;;;;;;;33.99;33.72;100062.80;108066;1253;71371;-69
2023/06/20 05:29:33;;;;;;;45.50;17.20;;;;;;;34.29;33.41;100061.54;108024;1255;59617;-70
2023/06/20 05:32:01;;;;;;;23.40;13.30;;;;;;;34.85;32.58;100059.80;108020;1254;59521;-67
2023/06/20 05:34:29;;;;;;;20.00;12.90;;;;;;;35.03;32.17;100062.44;107971;1254;64491;-68
2023/06/20 05:36:56;;;;;;;17.30;12.50;;;;;;;35.43;31.67;100062.22;108010;1255;61514;-69
2023/06/20 05:39:24;;;;;;;16.60;12.70;;;;;;;35.89;31.24;100065.94;107915;1256;63745;-68
2023/06/20 05:41:53;;;;;;;14.30;12.10;;;;;;;36.31;30.53;100063.48;107898;1256;59492;-69
2023/06/20 05:44:22;;;;;;;;;;;;;;;36.53;29.92;100070.00;107916;1254;59379;-68
2023/06/20 05:46:50;;;;;;;17.80;12.40;;;;;;;36.79;29.49;100067.81;108068;1256;62960;-69
2023/06/20 05:49:21;;;;;;;15.00;12.40;;;;;;;37.13;28.76;100066.74;107971;1254;61451;-69
2023/06/20 05:51:48;;;;;;;15.70;12.20;;;;;;;37.26;28.24;100063.05;107902;1257;64151;-69
2023/06/20 05:54:16;;;;;;;15.10;11.80;;;;;;;37.28;28.24;100068.40;107908;1254;59503;-68
2023/06/20 05:56:43;;;;;;;16.80;12.00;;;;;;;37.61;28.03;100064.77;107912;1254;59566;-69
2023/06/20 05:59:11;;;;;;;14.30;11.30;;;;;;;37.66;27.86;100063.77;108090;1254;63006;-69
2023/06/20 06:01:40;;;;;;;14.20;11.40;;;;;;;37.81;27.68;100065.13;107949;1256;61382;-70
2023/06/20 06:04:07;;;;;;;17.60;11.40;;;;;;;38.05;26.82;100065.12;107909;1256;62652;-68
2023/06/20 06:06:35;;;;;;;16.40;10.60;;;;;;;37.91;27.17;100068.69;107937;1258;59558;-68
2023/06/20 06:09:03;;;;;;;13.60;11.00;;;;;;;37.89;26.95;100069.05;107923;1256;59536;-69
2023/06/20 06:11:30;;;;;;;12.70;10.10;;;;;;;38.05;26.86;100070.17;107997;1259;64190;-69
2023/06/20 06:13:57;;;;;;;16.90;11.10;;;;;;;38.48;26.52;100066.72;107913;1256;60347;-69
2023/06/20 06:16:25;;;;;;;14.40;10.50;;;;;;;38.51;26.14;100067.38;107956;1254;63012;-71
2023/06/20 06:18:53;;;;;;;14.20;9.80;;;;;;;38.38;26.04;100065.38;107958;1254;60332;-69
2023/06/20 06:21:21;;;;;;;13.10;10.00;;;;;;;38.48;25.93;100066.89;107982;1255;60211;-70
2023/06/20 06:23:48;;;;;;;14.70;9.80;;;;;;;38.59;25.68;100065.80;107976;1258;64930;-70
2023/06/20 06:26:16;;;;;;;13.30;9.60;;;;;;;38.97;25.37;100062.73;107993;1258;61365;-70
2023/06/20 06:28:43;;;;;;;15.10;10.80;;;;;;;38.99;25.20;100060.14;108006;1256;63978;-70
2023/06/20 06:31:11;;;;;;;15.90;10.90;;;;;;;39.20;25.33;100061.67;108016;1257;60527;-70
2023/06/20 06:33:40;;;;;;;17.20;11.40;;;;;;;39.27;25.21;100063.52;108094;1254;60382;-70
2023/06/20 06:36:08;;;;;;;16.20;11.50;;;;;;;39.30;25.15;100061.66;108173;1254;63699;-70
2023/06/20 06:38:36;;;;;;;16.50;11.90;;;;;;;39.34;25.38;100059.23;108033;1255;61344;-70
2023/06/20 06:41:03;;;;;;;16.40;11.20;;;;;;;39.34;25.11;100055.71;107985;1255;74848;-70
2023/06/20 06:43:31;;;;;;;15.00;11.00;;;;;;;39.37;24.79;100054.73;107914;1255;60431;-69
2023/06/20 06:45:59;;;;;;;14.20;10.90;;;;;;;40.01;23.89;100055.09;107952;1255;60441;-70
2023/06/20 06:48:26;;;;;;;14.40;11.10;;;;;;;40.32;23.59;100054.00;107855;1260;65044;-70
2023/06/20 06:50:53;;;;;;;13.90;11.00;;;;;;;40.39;23.80;100052.23;107990;1259;61413;-70
2023/06/20 06:53:21;;;;;;;12.60;11.30;;;;;;;40.55;23.80;100050.84;107960;1257;63735;-71
2023/06/20 06:55:48;;;;;;;18.40;11.30;;;;;;;40.82;24.14;100056.83;107924;1253;60427;-70
2023/06/20 06:58:15;;;;;;;14.20;10.70;;;;;;;40.83;23.99;100055.29;107934;1260;60413;-70
2023/06/20 07:00:43;;;;;;;26.20;12.90;;;;;;;41.07;23.84;100049.71;107997;1254;65112;-70
2023/06/20 07:03:11;;;;;;;18.90;11.40;;;;;;;41.27;23.85;100052.52;107896;1259;63814;-71
2023/06/20 07:05:40;;;;;;;16.10;11.70;;;;;;;41.56;22.93;100055.06;107917;1256;66142;-70
2023/06/20 07:08:07;;;;;;;14.60;11.00;;;;;;;41.33;22.56;100054.52;107970;1255;60407;-71
2023/06/20 07:10:35;;;;;;;12.20;10.60;;;;;;;41.33;22.67;100054.52;107938;1254;60769;-69
2023/06/20 07:13:05;;;;;;;16.90;11.80;;;;;;;41.49;22.64;100055.60;107930;1254;64901;-71
2023/06/20 07:15:33;;;;;;;14.10;10.50;;;;;;;41.67;22.56;100047.70;107998;1254;61375;-70
2023/06/20 07:18:00;;;;;;;13.20;10.70;;;;;;;41.69;22.69;100047.21;107981;1255;62534;-70
2023/06/20 07:20:28;;;;;;;16.90;11.20;;;;;;;42.27;22.39;100045.23;108126;1256;60337;-72
2023/06/20 07:22:55;;;;;;;17.80;11.70;;;;;;;42.12;22.41;100048.35;107748;1254;60466;-70
2023/06/20 07:34:00;;;;;;;20.10;11.90;;;;;;;41.29;23.35;100044.74;108104;1254;63798;-70
2023/06/20 07:36:27;;;;;;;15.20;10.70;;;;;;;40.97;23.34;100049.65;108120;1254;60287;-70
2023/06/20 07:38:54;;;;;;;12.30;10.40;;;;;;;40.96;23.12;100045.55;108126;1254;60327;-70
2023/06/20 07:41:22;;;;;;;15.30;10.40;;;;;;;40.99;22.75;100042.27;108092;1254;65070;-70
2023/06/20 07:43:49;;;;;;;13.80;9.70;;;;;;;40.83;22.38;100039.61;108066;1254;61650;-70
2023/06/20 07:46:16;;;;;;;13.20;10.60;;;;;;;40.84;22.51;100041.55;108066;1260;63738;-70
2023/06/20 07:48:46;;;;;;;16.10;9.70;;;;;;;40.99;22.36;100044.04;108044;1253;60326;-68
2023/06/20 07:51:16;;;;;;;11.10;9.20;;;;;;;41.22;22.21;100037.88;108066;1254;60339;-68
2023/06/20 07:53:43;;;;;;;13.40;9.40;;;;;;;41.52;21.81;100037.48;108098;1255;64871;-69
2023/06/20 07:56:10;;;;;;;12.80;9.50;;;;;;;41.78;21.10;100034.73;108073;1258;61699;-71
2023/06/20 07:58:41;;;;;;;12.10;9.60;;;;;;;41.63;21.19;100041.70;108021;1254;63672;-69
2023/06/20 08:01:08;;;;;;;;;;;;;;;41.60;20.79;100042.55;108111;1254;60783;-71
2023/06/20 08:03:36;;;;;;;14.30;9.60;;;;;;;41.41;20.34;100039.83;108075;1254;59436;-70
2023/06/20 08:06:03;;;;;;;14.20;9.00;;;;;;;41.43;20.70;100043.92;108072;1253;64998;-72
2023/06/20 08:08:30;;;;;;;13.90;9.80;;;;;;;41.59;20.98;100045.06;108073;1255;60435;-71
2023/06/20 08:10:57;;;;;;;13.30;8.80;;;;;;;42.28;20.24;100037.64;108085;1259;63783;-69
2023/06/20 08:13:27;;;;;;;11.20;9.50;;;;;;;42.65;19.40;100034.61;107923;1260;60334;-68
2023/06/20 08:15:54;;;;;;;11.10;9.10;;;;;;;42.86;19.17;100033.65;108077;1254;60457;-70
2023/06/20 08:18:22;;;;;;;13.50;9.30;;;;;;;43.24;19.11;100033.80;107953;1254;64881;-71
2023/06/20 08:20:49;;;;;;;15.30;10.00;;;;;;;43.70;18.88;100032.36;108074;1254;60948;-70
2023/06/20 08:23:24;;;;;;;11.60;8.90;;;;;;;43.89;19.16;100026.93;107991;1253;63775;-70
2023/06/20 08:25:55;;;;;;;20.70;9.90;;;;;;;43.75;18.18;100030.22;108097;1254;60332;-70
2023/06/20 08:28:23;;;;;;;14.50;9.30;;;;;;;43.51;18.38;100032.65;108025;1254;60277;-70
2023/06/20 08:30:51;;;;;;;14.70;9.40;;;;;;;43.68;18.59;100037.31;108059;1254;65364;-70
2023/06/20 08:33:19;;;;;;;11.60;8.70;;;;;;;43.67;18.22;100032.15;108123;1254;62220;-70
2023/06/20 08:35:47;;;;;;;13.90;9.10;;;;;;;43.68;18.20;100033.38;108029;1257;64281;-70
2023/06/20 08:38:14;;;;;;;13.20;9.00;;;;;;;43.84;18.66;100032.42;108017;1260;59206;-70
2023/06/20 08:40:42;;;;;;;12.70;9.40;;;;;;;43.87;18.31;100023.92;107967;1254;60441;-70
2023/06/20 08:43:18;;;;;;;16.30;9.40;;;;;;;43.85;18.62;100026.83;108085;1254;64857;-71
2023/06/20 08:45:46;;;;;;;11.30;9.00;;;;;;;43.95;18.21;100028.58;107988;1255;61401;-70
2023/06/20 08:48:20;;;;;;;10.20;8.40;;;;;;;44.08;17.65;100028.05;108003;1257;64388;-71
2023/06/20 08:50:48;;;;;;;11.20;8.60;;;;;;;43.95;18.13;100022.64;108095;1254;60328;-70
2023/06/20 08:53:15;;;;;;;15.30;9.40;;;;;;;43.84;18.26;100018.66;108037;1254;60540;-70
2023/06/20 08:55:42;;;;;;;13.80;9.40;;;;;;;43.74;18.50;100019.90;107882;1254;63688;-70
2023/06/20 08:58:10;;;;;;;17.30;9.50;;;;;;;44.00;18.19;100018.59;107877;1254;62349;-70
2023/06/20 09:00:41;;;;;;;11.00;8.40;;;;;;;44.39;17.45;100021.13;107984;1259;63797;-70
2023/06/20 09:03:08;;;;;;;10.40;8.70;;;;;;;44.86;17.09;100022.75;107994;1256;60422;-71
2023/06/20 09:05:40;;;;;;;10.00;9.00;;;;;;;45.03;17.11;100021.50;107990;1254;60413;-71
2023/06/20 09:08:12;;;;;;;10.40;8.30;;;;;;;45.22;16.37;100017.04;107829;1257;64893;-70
2023/06/20 09:10:40;;;;;;;12.70;8.10;;;;;;;45.24;16.43;100023.86;107784;1257;61339;-70
2023/06/20 09:13:08;;;;;;;10.70;9.00;;;;;;;45.36;16.24;100020.31;107825;1255;63179;-71
2023/06/20 09:15:38;;;;;;;10.80;8.40;;;;;;;45.37;16.83;100019.31;107760;1257;60300;-69
2023/06/20 09:18:08;;;;;;;11.00;8.10;;;;;;;44.87;16.35;100019.96;108011;1256;59817;-70
2023/06/20 09:20:35;;;;;;;10.10;7.80;;;;;;;44.67;16.39;100015.48;107759;1257;66860;-70
2023/06/20 09:23:03;;;;;;;11.90;8.70;;;;;;;44.63;16.51;100018.15;107719;1260;60479;-70
2023/06/20 09:25:35;;;;;;;10.30;7.80;;;;;;;44.84;16.59;100017.66;107732;1257;62528;-71
2023/06/20 09:28:08;;;;;;;10.00;8.70;;;;;;;45.31;16.15;100018.30;107834;1257;60362;-70
2023/06/20 09:30:38;;;;;;;10.30;8.40;;;;;;;45.63;16.19;100014.98;107602;1258;60414;-71
2023/06/20 09:33:06;;;;;;;10.40;8.10;;;;;;;45.75;16.13;100010.64;107854;1256;65026;-69
2023/06/20 09:35:33;;;;;;;9.80;8.30;;;;;;;45.61;16.08;100011.10;107772;1257;60426;-69
2023/06/20 09:38:02;;;;;;;10.20;8.30;;;;;;;45.85;15.86;100009.70;107719;1256;63755;-71
2023/06/20 09:40:29;;;;;;;9.60;7.80;;;;;;;45.84;15.54;100005.91;107908;1257;60311;-70
2023/06/20 09:42:57;;;;;;;13.00;8.10;;;;;;;45.61;15.56;100007.10;107856;1258;61189;-71
2023/06/20 09:45:24;;;;;;;11.30;8.30;;;;;;;45.58;15.53;100008.95;107672;1257;63762;-72
2023/06/20 09:47:52;;;;;;;13.10;8.90;;;;;;;45.64;15.73;100004.90;107650;1257;61469;-71
2023/06/20 09:50:21;;;;;;;11.90;8.70;;;;;;;45.53;16.29;100001.77;107760;1258;62519;-70
2023/06/20 09:53:20;;;;;;;9.70;8.00;;;;;;;45.31;16.32;100003.25;107559;1257;60449;-70
2023/06/20 09:55:55;;;;;;;9.60;8.20;;;;;;;45.49;15.70;100000.58;107572;1263;60437;-71
2023/06/20 09:58:25;;;;;;;8.60;7.60;;;;;;;45.66;15.52;99997.33;107876;1257;63635;-70
2023/06/20 10:00:53;;;;;;;9.50;7.50;;;;;;;45.82;15.35;99995.48;107586;1257;61406;-70
2023/06/20 10:03:20;;;;;;;11.00;7.90;;;;;;;45.54;15.14;99994.14;107665;1257;62618;-72
2023/06/20 10:05:48;;;;;;;11.60;8.10;;;;;;;44.99;15.84;99997.17;107791;1257;59222;-71
2023/06/20 10:08:17;;;;;;;14.70;9.00;;;;;;;44.76;15.97;99994.76;107981;1254;60314;-72
2023/06/20 10:10:44;;;;;;;10.20;8.50;;;;;;;45.13;16.14;99993.39;107842;1254;63615;-70
2023/06/20 10:13:12;;;;;;;9.70;8.20;;;;;;;45.37;16.10;99993.17;107983;1254;61591;-69
2023/06/20 10:15:40;;;;;;;8.60;7.60;;;;;;;45.33;15.80;99990.59;107817;1256;63767;-70
2023/06/20 10:18:30;;;;;;;8.40;7.10;;;;;;;45.65;15.70;99988.27;107914;1254;60361;-70
2023/06/20 10:21:02;;;;;;;8.30;7.40;;;;;;;46.09;15.26;99989.64;107920;1254;60677;-70
2023/06/20 10:23:30;;;;;;;12.20;8.10;;;;;;;45.81;15.25;99985.64;108002;1254;64860;-70
2023/06/20 10:25:58;;;;;;;10.10;8.20;;;;;;;45.13;15.78;99987.29;108012;1259;61309;-71
2023/06/20 10:28:25;;;;;;;9.00;7.50;;;;;;;44.87;15.49;99991.33;108006;1254;63765;-71
2023/06/20 10:30:57;;;;;;;8.60;7.60;;;;;;;45.13;14.97;99984.14;108036;1253;60312;-73
2023/06/20 10:33:29;;;;;;;11.10;7.40;;;;;;;45.36;14.90;99980.73;108102;1253;59211;-69
2023/06/20 10:36:01;;;;;;;8.10;7.20;;;;;;;45.38;14.90;99976.00;108071;1254;63813;-69
2023/06/20 10:38:30;;;;;;;10.80;7.70;;;;;;;45.27;15.10;99977.64;108095;1253;60364;-71
2023/06/20 10:41:08;;;;;;;9.30;7.70;;;;;;;45.63;14.76;99975.59;108072;1254;62478;-70
2023/06/20 10:43:56;;;;;;;10.80;7.90;;;;;;;45.86;14.88;99971.75;108061;1253;60380;-70
2023/06/20 10:46:46;;;;;;;13.70;8.50;;;;;;;45.89;15.23;99970.42;108028;1253;60339;-72
2023/06/20 10:49:13;;;;;;;12.30;8.80;;;;;;;45.71;15.53;99969.02;108024;1253;63816;-72
2023/06/20 10:51:49;;;;;;;10.90;8.10;;;;;;;45.21;15.96;99964.55;107915;1253;60221;-72
2023/06/20 10:54:18;;;;;;;10.30;8.10;;;;;;;44.80;16.09;99964.56;107995;1257;63823;-70
2023/06/20 10:56:48;;;;;;;11.30;8.30;;;;;;;44.65;16.29;99961.38;108088;1253;60332;-71
2023/06/20 10:59:17;;;;;;;11.60;8.50;;;;;;;44.50;16.64;99958.47;108063;1253;60299;-71
2023/06/20 11:01:44;;;;;;;10.60;7.60;;;;;;;44.61;16.63;99956.67;108067;1253;65077;-70
2023/06/20 11:04:13;;;;;;;10.60;8.80;;;;;;;44.92;16.51;99954.33;108090;1254;61294;-71
2023/06/20 11:06:41;;;;;;;10.90;9.10;;;;;;;45.12;16.69;99948.06;108089;1253;63833;-70
2023/06/20 11:09:17;;;;;;;12.60;9.00;;;;;;;45.28;16.40;99947.95;108074;1253;59621;-72
2023/06/20 11:11:45;;;;;;;12.90;8.60;;;;;;;45.17;16.13;99944.91;108146;1253;60419;-72
2023/06/20 11:14:20;;;;;;;11.50;8.70;;;;;;;45.15;16.35;99939.92;108088;1253;64968;-71
2023/06/20 11:16:48;;;;;;;9.80;8.50;;;;;;;45.04;16.46;99941.45;108128;1253;61793;-71
2023/06/20 11:19:26;;;;;;;11.70;8.30;;;;;;;44.85;16.54;99940.21;108113;1254;63380;-70
2023/06/20 11:22:04;;;;;;;13.10;9.00;;;;;;;44.59;16.77;99937.98;108057;1254;60422;-71
2023/06/20 11:24:35;;;;;;;11.30;9.30;;;;;;;44.17;16.84;99932.92;108040;1253;59585;-69
2023/06/20 11:27:15;;;;;;;12.40;9.10;;;;;;;43.63;17.62;99927.63;108082;1253;64908;-70
2023/06/20 11:29:45;;;;;;;11.10;8.80;;;;;;;43.10;18.06;99921.58;108038;1254;61529;-71
2023/06/20 11:32:13;;;;;;;17.10;9.20;;;;;;;42.51;18.30;99921.75;108034;1254;62606;-71
2023/06/20 11:34:59;;;;;;;13.60;9.90;;;;;;;41.93;19.09;99922.60;108066;1254;60332;-71